Coevorden, Netherlands
Current Conditions -  °F | °C
As of 9:55 AM on Saturday 20 Dec 2014 (Local Time) from EHGG Reporting Station
Broken Clouds Broken Clouds  
Wind Chill: 38°   Ceiling: 2600
Heat Index: 46°   Visibility: 6mi
Dew Point: 39°   Wind: 23mph
Humidity: 76%   Direction: 260°W
Pressure: 29.88"   Gusts: NA
Location:  52.66°N, 6.74°E
Report Text: EHGG 200855Z AUTO 26020KT 230V300 9999 SCT022 BKN026 BKN04208/04 Q1012 TEMPO 27025G38KT 5000 SHRA SCT018CB
Loading
Personal Weather Stations






























Interactive Weather Map New forecast layout! Learn more

10-Day Weather Forecast

Advertisements
Track Severe Weather on mobile